Time;durP1;ratioP1;P1;durP2;ratioP2;P2;SDS_P1;SDS_P2;PMS_P1;PMS_P2;Temp;Humidity;BMP_temperature;BMP_pressure;BME280_temperature;BME280_humidity;BME280_pressure;Samples;Min_cycle;Max_cycle;Signal;HPM_P1;HPM_P2
2021/03/25 00:01:08;;;;;;;46.50;32.20;;;4.00;99.90;;;;;;5117547;27;20532;-75
2021/03/25 00:03:37;;;;;;;40.30;32.53;;;4.00;99.90;;;;;;5114539;27;20470;-72
2021/03/25 00:06:05;;;;;;;41.83;30.87;;;4.00;99.90;;;;;;5115915;27;20456;-73
2021/03/25 00:08:32;;;;;;;40.67;31.37;;;4.00;99.90;;;;;;5116597;27;20927;-74
2021/03/25 00:10:59;;;;;;;44.57;32.20;;;4.00;99.90;;;;;;5115445;27;21006;-73
2021/03/25 00:13:27;;;;;;;42.87;32.30;;;3.90;99.90;;;;;;5116116;27;20518;-73
2021/03/25 00:15:53;;;;;;;55.03;33.10;;;3.90;99.90;;;;;;5119749;27;20478;-73
2021/03/25 00:18:21;;;;;;;44.77;32.07;;;3.90;99.90;;;;;;5114159;28;20460;-74
2021/03/25 00:20:49;;;;;;;41.60;31.07;;;3.80;99.90;;;;;;5115177;28;20488;-73
2021/03/25 00:23:16;;;;;;;42.90;31.73;;;3.80;99.90;;;;;;5111561;28;21375;-72
2021/03/25 00:25:44;;;;;;;47.77;29.70;;;3.70;99.90;;;;;;5114539;28;20463;-72
2021/03/25 00:28:12;;;;;;;37.47;29.20;;;3.70;99.90;;;;;;5116631;28;20505;-72
2021/03/25 00:30:39;;;;;;;40.43;32.97;;;3.70;99.90;;;;;;5117937;28;20460;-71
2021/03/25 00:33:09;;;;;;;37.83;30.37;;;3.60;99.90;;;;;;5114780;28;20914;-73
2021/03/25 00:35:37;;;;;;;49.30;34.30;;;3.50;99.90;;;;;;5110051;28;20467;-73
2021/03/25 00:38:06;;;;;;;45.50;31.73;;;3.50;99.90;;;;;;5116665;27;20464;-74
2021/03/25 00:40:33;;;;;;;43.80;32.50;;;3.60;99.90;;;;;;5114139;27;20479;-74
2021/03/25 00:43:03;;;;;;;42.67;32.67;;;3.60;99.90;;;;;;5120707;27;20466;-72
2021/03/25 00:45:32;;;;;;;42.63;32.73;;;3.50;99.90;;;;;;5109598;27;20470;-72
2021/03/25 00:47:59;;;;;;;40.13;33.13;;;3.50;99.90;;;;;;5121120;27;20453;-73
2021/03/25 00:50:29;;;;;;;47.97;33.30;;;3.50;99.90;;;;;;5112198;27;20822;-74
2021/03/25 00:52:56;;;;;;;40.17;31.63;;;3.50;99.90;;;;;;5118112;27;20465;-71
2021/03/25 00:55:24;;;;;;;41.40;33.07;;;3.50;99.90;;;;;;5115028;27;20465;-73
2021/03/25 00:57:51;;;;;;;42.30;31.23;;;3.50;99.90;;;;;;5116581;27;20544;-73
2021/03/25 01:00:21;;;;;;;41.90;31.07;;;3.50;99.90;;;;;;5111089;27;20489;-71
2021/03/25 01:02:47;;;;;;;46.33;30.40;;;3.50;99.90;;;;;;5118830;27;20871;-73
2021/03/25 01:05:15;;;;;;;47.23;32.33;;;3.50;99.90;;;;;;5118110;27;20459;-72
2021/03/25 01:07:42;;;;;;;50.83;34.00;;;3.40;99.90;;;;;;5114684;27;20492;-73
2021/03/25 01:10:13;;;;;;;40.07;31.83;;;3.40;99.90;;;;;;5118165;27;20463;-72
2021/03/25 01:12:41;;;;;;;40.17;29.83;;;3.30;99.90;;;;;;5119087;27;20859;-74
2021/03/25 01:15:09;;;;;;;36.13;30.43;;;3.20;99.90;;;;;;5113232;27;20997;-72
2021/03/25 01:17:39;;;;;;;52.63;27.77;;;3.10;99.90;;;;;;5115128;27;20894;-73
2021/03/25 01:20:13;;;;;;;56.27;33.53;;;3.10;99.90;;;;;;5121958;27;20489;-73
2021/03/25 01:22:40;;;;;;;45.87;32.27;;;3.20;99.90;;;;;;5115625;27;20491;-74
2021/03/25 01:25:08;;;;;;;36.30;29.87;;;3.30;99.90;;;;;;5117513;27;20457;-73
2021/03/25 01:27:35;;;;;;;40.03;30.77;;;3.20;99.90;;;;;;5115053;27;20497;-73
2021/03/25 01:30:04;;;;;;;36.87;31.43;;;3.20;99.90;;;;;;5119621;27;20460;-73
2021/03/25 01:32:30;;;;;;;44.80;32.00;;;3.20;99.90;;;;;;5119322;27;20475;-73
2021/03/25 01:34:57;;;;;;;44.93;32.17;;;3.20;99.90;;;;;;5119556;27;21353;-74
2021/03/25 01:37:24;;;;;;;40.70;31.63;;;3.30;99.90;;;;;;5115440;27;20465;-74
2021/03/25 01:39:51;;;;;;;58.90;34.50;;;3.20;99.90;;;;;;5118959;27;20492;-74
2021/03/25 01:42:22;;;;;;;44.67;33.97;;;3.30;99.90;;;;;;5118628;27;20463;-72
2021/03/25 01:44:48;;;;;;;46.00;32.57;;;3.30;99.90;;;;;;5112310;27;20468;-72
2021/03/25 01:47:15;;;;;;;44.97;31.37;;;3.30;99.90;;;;;;5113716;27;20817;-73
2021/03/25 01:49:42;;;;;;;39.17;31.30;;;3.30;99.90;;;;;;5114685;27;21034;-72
2021/03/25 01:52:44;;;;;;;46.83;32.30;;;3.30;99.90;;;;;;5120750;27;20516;-71
2021/03/25 01:55:27;;;;;;;48.10;32.23;;;3.40;99.90;;;;;;5113992;27;20464;-73
2021/03/25 01:58:05;;;;;;;46.60;33.80;;;3.40;99.90;;;;;;5112907;27;20574;-74
2021/03/25 02:00:39;;;;;;;42.63;31.33;;;3.50;99.90;;;;;;5112199;27;20498;-73
2021/03/25 02:03:35;;;;;;;38.33;30.50;;;3.50;99.90;;;;;;5116401;27;20466;-74
2021/03/25 02:06:09;;;;;;;42.80;31.97;;;3.50;99.90;;;;;;5105669;27;20467;-73
2021/03/25 02:08:48;;;;;;;45.83;31.47;;;3.60;99.90;;;;;;5115587;27;20817;-71
2021/03/25 02:11:24;;;;;;;45.20;33.90;;;3.60;99.90;;;;;;5114996;27;20464;-72
2021/03/25 02:14:01;;;;;;;42.40;31.30;;;3.60;99.90;;;;;;5111031;27;20879;-73
2021/03/25 02:16:37;;;;;;;51.87;37.20;;;3.60;99.90;;;;;;5113780;27;20480;-72
2021/03/25 02:19:18;;;;;;;53.97;35.23;;;3.60;99.90;;;;;;5110746;27;21403;-72
2021/03/25 02:22:22;;;;;;;44.30;31.43;;;3.60;99.90;;;;;;5116605;27;20475;-73
2021/03/25 02:24:56;;;;;;;48.07;32.50;;;3.70;99.90;;;;;;5113590;27;20521;-74
2021/03/25 02:27:41;;;;;;;45.30;33.90;;;3.60;99.90;;;;;;5118047;27;20474;-73
2021/03/25 02:30:11;;;;;;;50.57;35.83;;;3.50;99.90;;;;;;5111764;27;20875;-73
2021/03/25 02:32:46;;;;;;;58.93;38.47;;;3.50;99.90;;;;;;5115071;27;20555;-72
2021/03/25 02:35:19;;;;;;;52.17;37.70;;;3.70;99.90;;;;;;5114296;27;20459;-71
2021/03/25 02:37:48;;;;;;;56.13;37.13;;;3.90;99.90;;;;;;5118074;27;20564;-72
2021/03/25 02:40:22;;;;;;;65.20;39.30;;;4.10;99.90;;;;;;5116177;27;21064;-71
2021/03/25 02:42:53;;;;;;;60.03;37.73;;;4.10;99.90;;;;;;5114805;27;20471;-73
2021/03/25 02:45:22;;;;;;;60.90;38.77;;;4.10;99.90;;;;;;5116191;27;20471;-72
2021/03/25 02:47:53;;;;;;;72.97;40.57;;;4.10;99.90;;;;;;5111991;27;20468;-74
2021/03/25 02:50:23;;;;;;;51.93;34.20;;;4.10;99.90;;;;;;5101983;27;20492;-74
2021/03/25 02:52:57;;;;;;;40.60;31.00;;;4.10;99.90;;;;;;5110034;27;20549;-73
2021/03/25 02:55:23;;;;;;;52.57;35.83;;;3.40;99.90;;;;;;5111086;27;20940;-72
2021/03/25 02:58:02;;;;;;;66.67;37.43;;;3.40;99.90;;;;;;5117893;27;20888;-73
2021/03/25 03:00:33;;;;;;;50.10;38.77;;;3.50;99.90;;;;;;5115440;27;20575;-71
2021/03/25 03:03:05;;;;;;;67.90;38.93;;;3.50;99.90;;;;;;5112529;27;20456;-74
2021/03/25 03:05:35;;;;;;;58.77;37.90;;;3.50;99.90;;;;;;5117536;27;20806;-72
2021/03/25 03:08:07;;;;;;;53.03;36.67;;;3.50;99.90;;;;;;5119295;27;20949;-72
2021/03/25 03:10:37;;;;;;;60.13;39.00;;;3.50;99.90;;;;;;5120371;27;20869;-74
2021/03/25 03:13:05;;;;;;;63.63;39.20;;;3.50;99.90;;;;;;5113408;27;20473;-72
2021/03/25 03:15:37;;;;;;;64.37;41.03;;;3.50;99.90;;;;;;5112761;27;20463;-71
2021/03/25 03:18:09;;;;;;;62.43;40.13;;;3.50;99.90;;;;;;5110983;27;20487;-71
2021/03/25 03:20:41;;;;;;;70.03;39.90;;;3.50;99.90;;;;;;5110508;27;20545;-72
2021/03/25 03:23:09;;;;;;;73.53;41.53;;;3.60;99.90;;;;;;5105328;27;20567;-74
2021/03/25 03:25:36;;;;;;;66.97;43.50;;;3.60;99.90;;;;;;5117646;27;20463;-72
2021/03/25 03:28:08;;;;;;;64.60;40.63;;;3.70;99.90;;;;;;5114972;27;20463;-73
2021/03/25 03:30:38;;;;;;;74.87;42.70;;;3.80;99.90;;;;;;5112303;27;20758;-73
2021/03/25 03:33:11;;;;;;;68.27;39.73;;;3.80;99.90;;;;;;5113738;27;20461;-74
2021/03/25 03:35:42;;;;;;;62.23;41.10;;;3.90;99.90;;;;;;5108141;27;21000;-74
2021/03/25 03:38:12;;;;;;;66.40;41.37;;;3.90;99.90;;;;;;5110083;27;20803;-72
2021/03/25 03:40:41;;;;;;;60.27;39.03;;;3.90;99.90;;;;;;5114078;27;20500;-72
2021/03/25 03:43:12;;;;;;;81.50;44.17;;;4.00;99.90;;;;;;5113281;27;20465;-74
2021/03/25 03:45:42;;;;;;;72.83;43.33;;;4.10;99.90;;;;;;5115593;27;20456;-74
2021/03/25 03:48:19;;;;;;;70.53;45.53;;;4.20;99.90;;;;;;5116101;27;20622;-73
2021/03/25 03:50:51;;;;;;;77.93;40.77;;;4.30;99.90;;;;;;5102875;27;20464;-74
2021/03/25 03:53:18;;;;;;;69.10;42.90;;;4.30;99.90;;;;;;5116649;27;20547;-72
2021/03/25 03:55:44;;;;;;;71.53;44.77;;;4.40;99.90;;;;;;5110035;27;20503;-74
2021/03/25 03:58:19;;;;;;;79.80;46.50;;;4.50;99.90;;;;;;5112948;27;20461;-72
2021/03/25 04:00:51;;;;;;;80.03;44.67;;;4.60;99.90;;;;;;5114422;27;20484;-71
2021/03/25 04:03:25;;;;;;;83.70;46.87;;;4.60;99.90;;;;;;5103908;27;20463;-72
2021/03/25 04:05:54;;;;;;;92.70;50.57;;;4.60;99.90;;;;;;5117246;27;20500;-72
2021/03/25 04:08:28;;;;;;;89.30;49.03;;;4.70;99.90;;;;;;5117219;27;20482;-73
2021/03/25 04:11:00;;;;;;;80.83;45.90;;;4.80;99.90;;;;;;5111342;27;21322;-74
2021/03/25 04:13:30;;;;;;;63.03;39.57;;;4.80;99.90;;;;;;5113026;27;20548;-73
2021/03/25 04:15:57;;;;;;;76.67;46.43;;;4.70;99.90;;;;;;5112055;28;20469;-74
2021/03/25 04:18:31;;;;;;;76.67;43.37;;;4.70;99.90;;;;;;5116828;28;20469;-73
2021/03/25 04:21:05;;;;;;;85.40;50.07;;;4.60;99.90;;;;;;5114829;28;20493;-73
2021/03/25 04:23:34;;;;;;;104.30;50.20;;;4.80;99.90;;;;;;5115094;28;20465;-73
2021/03/25 04:26:09;;;;;;;84.63;51.00;;;4.90;99.90;;;;;;5121098;28;20543;-72
2021/03/25 04:28:40;;;;;;;92.17;50.13;;;4.90;99.90;;;;;;5117239;28;20472;-72
2021/03/25 04:31:08;;;;;;;74.13;45.63;;;4.90;99.90;;;;;;5115296;28;20462;-73
2021/03/25 04:33:38;;;;;;;83.43;46.47;;;4.60;99.90;;;;;;5101053;28;20472;-72
2021/03/25 04:36:10;;;;;;;99.53;50.27;;;4.50;99.90;;;;;;5110773;28;20465;-72
2021/03/25 04:38:40;;;;;;;75.37;47.90;;;4.60;99.90;;;;;;5116587;28;20464;-73
2021/03/25 04:41:09;;;;;;;76.07;47.63;;;4.70;99.90;;;;;;5112186;28;20516;-73
2021/03/25 04:43:36;;;;;;;73.07;46.60;;;4.70;99.90;;;;;;5115262;28;20505;-72
2021/03/25 04:46:15;;;;;;;66.73;44.73;;;4.60;99.90;;;;;;5112871;28;20468;-73
2021/03/25 04:48:45;;;;;;;64.57;44.67;;;4.50;99.90;;;;;;5111094;28;20496;-72
2021/03/25 04:51:15;;;;;;;69.83;43.00;;;4.40;99.90;;;;;;5105146;28;20463;-71
2021/03/25 04:53:43;;;;;;;78.97;47.63;;;4.30;99.90;;;;;;5112436;28;20543;-73
2021/03/25 04:56:13;;;;;;;88.97;49.63;;;4.30;99.90;;;;;;5114754;28;20468;-73
2021/03/25 04:58:44;;;;;;;92.43;53.80;;;4.40;99.90;;;;;;5111976;28;20460;-73
2021/03/25 05:01:15;;;;;;;90.87;53.03;;;4.50;99.90;;;;;;5114048;28;20489;-74
2021/03/25 05:03:42;;;;;;;92.90;51.70;;;4.60;99.90;;;;;;5118414;28;20457;-72
2021/03/25 05:06:18;;;;;;;97.43;54.53;;;4.60;99.90;;;;;;5116406;28;20469;-73
2021/03/25 05:08:46;;;;;;;94.97;53.50;;;4.70;99.90;;;;;;5113437;28;20488;-73
2021/03/25 05:11:15;;;;;;;93.00;54.13;;;4.70;99.90;;;;;;5115424;28;20531;-74
2021/03/25 05:13:44;;;;;;;82.13;51.87;;;4.70;99.90;;;;;;5112187;28;20973;-72
2021/03/25 05:16:20;;;;;;;80.07;50.37;;;4.70;99.90;;;;;;5113129;28;20554;-72
2021/03/25 05:18:55;;;;;;;87.80;53.97;;;4.70;99.90;;;;;;5101812;28;20495;-73
2021/03/25 05:21:27;;;;;;;101.23;56.77;;;4.70;99.90;;;;;;5115268;28;20537;-74
2021/03/25 05:24:02;;;;;;;98.37;55.17;;;4.70;99.90;;;;;;5112558;27;20514;-72
2021/03/25 05:26:35;;;;;;;94.10;55.13;;;4.70;99.90;;;;;;5113479;27;20459;-74
2021/03/25 05:29:05;;;;;;;88.10;55.43;;;4.60;99.90;;;;;;5119733;27;20951;-73
2021/03/25 05:31:34;;;;;;;107.33;57.73;;;4.50;99.90;;;;;;5112618;27;20556;-74
2021/03/25 05:34:04;;;;;;;117.03;57.60;;;4.60;99.90;;;;;;5114490;27;20460;-74
2021/03/25 05:36:31;;;;;;;101.10;57.60;;;4.60;99.90;;;;;;5118597;27;20452;-72
2021/03/25 05:38:58;;;;;;;100.23;56.43;;;4.70;99.90;;;;;;5119634;27;21042;-70
2021/03/25 05:41:31;;;;;;;105.83;58.70;;;4.70;99.90;;;;;;5107238;27;20459;-73
2021/03/25 05:44:19;;;;;;;106.23;57.50;;;4.70;99.90;;;;;;5113841;27;20467;-73
2021/03/25 05:46:52;;;;;;;106.93;59.77;;;4.70;99.90;;;;;;5111345;27;20465;-72
2021/03/25 05:49:40;;;;;;;106.63;57.00;;;4.80;99.90;;;;;;5106886;27;20522;-73
2021/03/25 05:52:33;;;;;;;100.30;57.87;;;4.80;99.90;;;;;;5115710;27;20464;-73
2021/03/25 05:55:09;;;;;;;109.90;57.20;;;4.80;99.90;;;;;;5117438;27;20627;-73
2021/03/25 05:57:43;;;;;;;101.77;57.20;;;4.80;99.90;;;;;;5111717;27;20473;-74
2021/03/25 06:00:25;;;;;;;109.03;58.77;;;4.80;99.90;;;;;;5115864;27;21016;-73
2021/03/25 06:02:58;;;;;;;112.77;61.40;;;4.80;99.90;;;;;;5121281;27;20772;-72
2021/03/25 06:05:25;;;;;;;98.67;58.47;;;4.90;99.90;;;;;;5111012;27;20492;-74
2021/03/25 06:08:18;;;;;;;108.97;59.20;;;5.00;99.90;;;;;;5118396;27;20512;-73
2021/03/25 06:11:11;;;;;;;113.93;63.00;;;5.10;99.90;;;;;;5119689;27;20939;-73
2021/03/25 06:13:52;;;;;;;110.97;62.80;;;5.30;99.90;;;;;;5115601;27;20547;-72
2021/03/25 06:17:03;;;;;;;104.27;60.40;;;5.50;99.90;;;;;;5114932;27;20548;-73
2021/03/25 06:19:51;;;;;;;109.70;60.97;;;5.60;99.90;;;;;;5090109;27;20511;-75
2021/03/25 06:22:24;;;;;;;106.17;59.20;;;5.70;99.90;;;;;;5111907;27;20584;-72
2021/03/25 06:25:29;;;;;;;107.10;61.33;;;5.80;99.90;;;;;;5120832;27;20551;-73
2021/03/25 06:28:09;;;;;;;108.47;61.33;;;5.90;99.90;;;;;;5112596;27;20694;-72
2021/03/25 06:30:39;;;;;;;102.17;60.00;;;6.10;99.90;;;;;;5115032;27;20472;-74
2021/03/25 06:33:13;;;;;;;113.90;64.30;;;6.20;99.90;;;;;;5114057;27;20850;-74
2021/03/25 06:35:43;;;;;;;114.67;60.70;;;6.30;99.90;;;;;;5111398;27;20613;-73
2021/03/25 06:38:18;;;;;;;96.10;57.50;;;6.50;99.90;;;;;;5112037;27;20969;-73
2021/03/25 06:40:48;;;;;;;110.90;60.50;;;6.60;99.90;;;;;;5117635;27;20834;-74
2021/03/25 06:43:20;;;;;;;104.83;63.07;;;6.80;99.90;;;;;;5120535;27;21387;-74
2021/03/25 06:45:51;;;;;;;110.77;64.17;;;6.80;99.90;;;;;;5118455;27;20464;-74
2021/03/25 06:48:25;;;;;;;97.87;59.87;;;6.80;99.90;;;;;;5112474;27;20465;-74
2021/03/25 06:50:53;;;;;;;113.90;63.60;;;7.00;99.90;;;;;;5101055;27;20491;-75
2021/03/25 06:53:27;;;;;;;99.33;61.40;;;7.20;99.90;;;;;;5111367;27;20543;-73
2021/03/25 06:55:57;;;;;;;103.30;58.90;;;7.30;99.90;;;;;;5118423;27;20490;-74
2021/03/25 06:58:29;;;;;;;108.90;63.90;;;7.30;99.90;;;;;;5104509;27;20457;-74
2021/03/25 07:01:00;;;;;;;107.57;63.03;;;7.50;99.90;;;;;;5104756;27;20496;-73
2021/03/25 07:03:28;;;;;;;98.13;60.40;;;7.90;99.90;;;;;;5104557;27;20458;-72
2021/03/25 07:05:55;;;;;;;104.57;60.03;;;8.00;99.90;;;;;;5104866;27;20486;-72
2021/03/25 07:08:25;;;;;;;97.27;59.07;;;8.10;99.90;;;;;;5112693;27;20498;-72
2021/03/25 07:10:54;;;;;;;98.30;59.47;;;8.30;99.90;;;;;;5104628;27;20523;-72
2021/03/25 07:13:33;;;;;;;108.43;60.87;;;8.50;99.90;;;;;;5106499;27;20464;-73
2021/03/25 07:15:59;;;;;;;91.77;58.63;;;8.70;99.90;;;;;;5119607;27;20456;-73
2021/03/25 07:18:32;;;;;;;99.77;59.40;;;8.80;99.90;;;;;;5115359;27;20462;-74
2021/03/25 07:21:38;;;;;;;89.83;58.20;;;8.90;99.90;;;;;;5113103;27;20520;-73
2021/03/25 07:24:11;;;;;;;102.80;61.30;;;9.00;99.90;;;;;;5113505;27;20548;-72
2021/03/25 07:26:41;;;;;;;86.80;58.10;;;9.20;99.90;;;;;;5108785;27;20464;-73
2021/03/25 07:29:22;;;;;;;91.80;60.97;;;9.40;99.90;;;;;;5103813;27;20803;-71
2021/03/25 07:32:26;;;;;;;102.67;57.50;;;9.50;99.90;;;;;;5098393;27;20457;-74
2021/03/25 07:34:54;;;;;;;84.13;55.37;;;9.60;99.90;;;;;;5104373;27;20820;-74
2021/03/25 07:37:35;;;;;;;84.00;55.70;;;9.40;99.90;;;;;;5108135;27;20489;-75
2021/03/25 07:40:07;;;;;;;89.23;54.90;;;9.20;99.90;;;;;;5104121;27;20496;-73
2021/03/25 07:42:35;;;;;;;82.77;55.30;;;9.20;99.90;;;;;;5108484;27;20468;-74
2021/03/25 07:45:19;;;;;;;92.20;56.83;;;9.10;99.90;;;;;;5115569;27;20571;-72
2021/03/25 07:47:45;;;;;;;77.17;53.77;;;9.20;99.90;;;;;;5112389;27;20514;-72
2021/03/25 07:50:30;;;;;;;81.50;55.10;;;9.20;99.90;;;;;;5114411;27;20456;-74
2021/03/25 07:52:58;;;;;;;80.50;54.87;;;9.50;99.90;;;;;;5111061;27;20459;-74
2021/03/25 07:55:27;;;;;;;87.00;56.20;;;9.70;99.90;;;;;;5111166;27;20596;-72
2021/03/25 07:57:56;;;;;;;79.63;54.93;;;9.80;99.90;;;;;;5107135;27;20496;-75
2021/03/25 08:00:29;;;;;;;86.70;57.30;;;10.10;99.90;;;;;;5108850;27;20548;-75
2021/03/25 08:03:13;;;;;;;88.43;57.70;;;10.20;99.90;;;;;;5110158;27;20776;-72
2021/03/25 08:05:40;;;;;;;82.30;55.87;;;10.30;99.90;;;;;;5109193;28;20510;-75
2021/03/25 08:08:19;;;;;;;80.30;55.73;;;10.40;99.90;;;;;;5107835;27;20487;-73
2021/03/25 08:10:49;;;;;;;74.80;51.60;;;10.70;99.90;;;;;;5106943;27;20464;-72
2021/03/25 08:13:19;;;;;;;81.40;54.53;;;10.80;99.90;;;;;;5109859;28;20638;-75
2021/03/25 08:15:47;;;;;;;71.97;51.20;;;11.20;99.90;;;;;;5120325;27;20917;-73
2021/03/25 08:18:29;;;;;;;89.80;55.97;;;11.20;99.90;;;;;;5113752;27;20475;-73
2021/03/25 08:21:07;;;;;;;82.47;54.63;;;11.20;99.90;;;;;;5112041;28;20521;-74
2021/03/25 08:23:55;;;;;;;82.80;56.17;;;11.10;99.90;;;;;;5110392;28;20461;-71
2021/03/25 08:26:28;;;;;;;82.30;53.30;;;11.00;99.90;;;;;;5109182;28;20547;-72
2021/03/25 08:29:05;;;;;;;82.23;56.63;;;11.20;99.90;;;;;;5103490;28;20461;-73
2021/03/25 08:31:42;;;;;;;80.83;56.33;;;11.30;99.90;;;;;;5107001;28;20557;-75
2021/03/25 08:34:49;;;;;;;73.03;52.63;;;11.40;99.90;;;;;;5105444;28;20456;-73
2021/03/25 08:37:50;;;;;;;78.87;52.80;;;11.60;99.90;;;;;;5110595;28;20784;-72
2021/03/25 08:40:20;;;;;;;72.87;50.57;;;11.30;99.90;;;;;;5105921;28;20492;-75
2021/03/25 08:42:51;;;;;;;83.80;49.90;;;11.40;99.90;;;;;;5116146;28;20507;-72
2021/03/25 08:45:24;;;;;;;73.73;49.07;;;11.40;99.90;;;;;;5115286;28;20459;-73
2021/03/25 08:47:59;;;;;;;88.10;55.93;;;11.40;99.90;;;;;;5107667;28;20472;-75
2021/03/25 08:50:42;;;;;;;79.37;53.80;;;11.30;99.90;;;;;;5115657;28;20641;-73
2021/03/25 08:53:36;;;;;;;78.20;52.90;;;11.60;99.90;;;;;;5116394;28;20460;-73
2021/03/25 08:56:08;;;;;;;75.93;52.80;;;11.60;99.90;;;;;;5105926;28;20985;-72
2021/03/25 08:58:39;;;;;;;77.50;51.67;;;11.60;99.90;;;;;;5113952;27;20883;-73
2021/03/25 09:01:11;;;;;;;75.60;52.63;;;11.60;99.90;;;;;;5113548;27;21025;-72
2021/03/25 09:03:41;;;;;;;72.03;49.37;;;11.80;99.90;;;;;;5108410;27;20460;-75
2021/03/25 09:06:14;;;;;;;85.50;52.20;;;11.70;99.90;;;;;;5112598;27;20510;-73
2021/03/25 09:08:43;;;;;;;82.13;52.10;;;11.70;99.90;;;;;;5115111;27;20492;-75
2021/03/25 09:11:13;;;;;;;78.87;52.43;;;11.80;99.90;;;;;;5118163;27;20959;-74
2021/03/25 09:13:43;;;;;;;78.03;52.67;;;11.60;99.90;;;;;;5113518;27;20455;-75
2021/03/25 09:16:17;;;;;;;77.07;52.50;;;11.50;99.90;;;;;;5111333;27;20971;-73
2021/03/25 09:18:45;;;;;;;75.40;50.30;;;11.60;99.90;;;;;;5108108;27;20650;-73
2021/03/25 09:21:15;;;;;;;76.80;53.80;;;11.50;99.90;;;;;;5115212;27;20500;-73
2021/03/25 09:24:12;;;;;;;83.10;49.70;;;11.60;99.90;;;;;;5108336;27;20463;-76
2021/03/25 09:26:54;;;;;;;74.77;48.23;;;11.60;99.90;;;;;;5109368;27;20459;-73
2021/03/25 09:29:25;;;;;;;77.13;48.13;;;11.70;99.90;;;;;;5105459;27;20459;-75
2021/03/25 09:32:19;;;;;;;66.70;48.03;;;11.90;99.90;;;;;;5106959;27;20590;-77
2021/03/25 09:34:50;;;;;;;67.47;43.90;;;12.00;99.90;;;;;;5109788;27;20466;-73
2021/03/25 09:37:21;;;;;;;58.60;42.70;;;12.30;99.90;;;;;;5108594;27;21031;-74
2021/03/25 09:40:13;;;;;;;63.00;44.07;;;12.80;99.90;;;;;;5105390;27;20487;-76
2021/03/25 09:42:42;;;;;;;55.63;43.00;;;13.50;99.90;;;;;;5109354;27;20871;-73
2021/03/25 09:45:30;;;;;;;57.20;42.00;;;13.90;99.90;;;;;;5109688;27;20495;-73
2021/03/25 09:48:01;;;;;;;54.70;39.87;;;14.10;99.90;;;;;;5115794;27;20526;-73
2021/03/25 09:50:29;;;;;;;53.67;43.50;;;14.30;99.90;;;;;;5108521;27;20467;-73
2021/03/25 09:53:16;;;;;;;60.60;43.07;;;13.90;99.90;;;;;;5114088;27;20457;-74
2021/03/25 09:56:00;;;;;;;55.87;42.23;;;13.80;99.90;;;;;;5106172;27;21046;-73
2021/03/25 09:58:45;;;;;;;53.40;40.80;;;13.90;99.90;;;;;;5109926;27;20467;-73
2021/03/25 10:01:44;;;;;;;53.03;38.90;;;13.80;99.90;;;;;;5117089;27;20599;-73
2021/03/25 10:04:29;;;;;;;46.20;37.70;;;13.70;99.90;;;;;;5099489;27;20552;-73
2021/03/25 10:07:03;;;;;;;45.70;36.57;;;13.90;99.90;;;;;;5114009;27;20977;-76
2021/03/25 10:09:52;;;;;;;45.23;36.80;;;14.00;99.90;;;;;;5112857;27;21256;-74
2021/03/25 10:12:58;;;;;;;45.90;35.73;;;14.30;99.90;;;;;;5115416;27;20464;-75
2021/03/25 10:15:56;;;;;;;47.43;35.93;;;14.70;99.90;;;;;;5091296;27;20460;-75
2021/03/25 10:18:51;;;;;;;49.10;35.57;;;14.90;99.90;;;;;;5112169;27;20560;-73
2021/03/25 10:21:35;;;;;;;42.67;34.10;;;14.20;99.90;;;;;;5110528;27;20509;-73
2021/03/25 10:24:02;;;;;;;45.33;34.83;;;13.90;99.90;;;;;;5101542;27;20456;-73
2021/03/25 10:26:33;;;;;;;52.10;36.67;;;14.10;99.90;;;;;;5114626;27;20457;-74
2021/03/25 10:29:04;;;;;;;52.53;36.33;;;14.30;99.90;;;;;;5117917;27;20491;-73
2021/03/25 10:31:40;;;;;;;49.33;38.03;;;14.40;99.90;;;;;;5112393;27;20492;-73
2021/03/25 10:34:15;;;;;;;41.07;34.83;;;14.50;99.90;;;;;;5112174;27;20469;-72
2021/03/25 10:36:48;;;;;;;44.50;34.30;;;14.50;99.90;;;;;;5114478;27;20799;-76
2021/03/25 10:39:24;;;;;;;39.20;32.70;;;14.80;99.90;;;;;;5117973;27;21092;-74
2021/03/25 10:41:51;;;;;;;34.73;31.30;;;15.00;99.90;;;;;;5111511;27;20506;-74
2021/03/25 10:44:20;;;;;;;40.60;32.97;;;15.20;99.90;;;;;;5119540;27;20464;-73
2021/03/25 10:46:47;;;;;;;38.60;31.77;;;15.60;99.90;;;;;;5117688;27;20969;-76
2021/03/25 10:49:17;;;;;;;39.10;30.37;;;15.70;99.90;;;;;;5107713;27;20821;-76
2021/03/25 10:51:46;;;;;;;35.87;32.00;;;15.90;99.90;;;;;;5107308;27;20453;-73
2021/03/25 10:54:21;;;;;;;39.63;33.30;;;15.70;99.90;;;;;;5113967;27;20989;-75
2021/03/25 10:56:48;;;;;;;35.07;31.23;;;15.60;99.90;;;;;;5113691;27;21015;-73
2021/03/25 10:59:22;;;;;;;40.93;32.80;;;15.80;99.90;;;;;;5113403;27;20465;-75
2021/03/25 11:01:52;;;;;;;39.47;32.63;;;16.60;99.90;;;;;;5111592;27;20489;-75
2021/03/25 11:04:21;;;;;;;38.90;30.50;;;16.60;99.90;;;;;;5113836;27;20459;-76
2021/03/25 11:06:49;;;;;;;33.03;29.87;;;16.80;99.90;;;;;;5113162;27;20461;-73
2021/03/25 11:09:19;;;;;;;35.80;30.20;;;17.00;99.90;;;;;;5113514;27;20577;-72
2021/03/25 11:11:50;;;;;;;36.93;28.47;;;16.80;99.90;;;;;;5111178;27;20453;-75
2021/03/25 11:14:25;;;;;;;33.10;29.60;;;16.90;99.90;;;;;;5105169;27;20533;-75
2021/03/25 11:16:55;;;;;;;31.07;27.77;;;17.20;99.90;;;;;;5109031;27;20971;-74
2021/03/25 11:19:24;;;;;;;33.60;29.00;;;17.40;99.90;;;;;;5118424;27;20599;-73
2021/03/25 11:21:54;;;;;;;30.30;26.87;;;17.50;99.90;;;;;;5108997;27;20492;-75
2021/03/25 11:24:23;;;;;;;35.03;29.00;;;17.60;99.90;;;;;;5112552;27;20465;-73
2021/03/25 11:26:55;;;;;;;30.17;27.10;;;17.50;99.90;;;;;;5118620;27;21290;-73
2021/03/25 11:29:23;;;;;;;31.13;27.87;;;17.20;99.90;;;;;;5114206;27;20460;-74
2021/03/25 11:31:49;;;;;;;29.50;26.70;;;17.60;99.90;;;;;;5105994;27;21020;-75
2021/03/25 11:34:26;;;;;;;31.40;28.37;;;17.50;99.90;;;;;;5109763;27;20468;-73
2021/03/25 11:36:53;;;;;;;31.30;27.93;;;18.00;99.90;;;;;;5103377;27;20466;-73
2021/03/25 11:39:26;;;;;;;28.43;25.43;;;18.20;99.90;;;;;;5111631;27;20472;-74
2021/03/25 11:41:56;;;;;;;27.90;24.90;;;18.40;99.90;;;;;;5092493;27;20491;-74
2021/03/25 11:44:42;;;;;;;26.70;24.20;;;18.30;99.90;;;;;;5097252;27;21000;-74
2021/03/25 11:47:44;;;;;;;32.50;28.17;;;18.20;99.90;;;;;;5110017;27;20547;-75
2021/03/25 11:50:32;;;;;;;31.30;28.07;;;17.90;99.90;;;;;;5060419;28;20457;-74
2021/03/25 11:53:01;;;;;;;32.20;28.50;;;17.40;99.90;;;;;;5108915;27;20465;-76
2021/03/25 11:55:36;;;;;;;31.00;27.60;;;17.20;99.90;;;;;;5112636;27;20460;-74
2021/03/25 11:58:08;;;;;;;27.70;25.07;;;17.10;99.90;;;;;;5108913;27;20998;-73
2021/03/25 12:00:34;;;;;;;29.10;26.10;;;16.80;99.90;;;;;;5111390;27;20488;-73
2021/03/25 12:03:23;;;;;;;28.37;25.60;;;16.50;99.90;;;;;;5113478;27;20482;-73
2021/03/25 12:05:50;;;;;;;27.90;24.97;;;16.50;99.90;;;;;;5105758;28;20475;-75
2021/03/25 12:08:27;;;;;;;30.17;26.97;;;16.90;99.90;;;;;;5111908;27;20485;-73
2021/03/25 12:10:59;;;;;;;28.33;25.30;;;17.50;99.90;;;;;;5112033;27;20453;-74
2021/03/25 12:13:26;;;;;;;26.40;24.00;;;17.60;99.90;;;;;;5113143;27;20833;-72
2021/03/25 12:15:52;;;;;;;27.77;25.07;;;17.90;99.90;;;;;;5110762;27;20461;-73
2021/03/25 12:18:24;;;;;;;28.13;25.37;;;17.60;99.90;;;;;;5109539;27;20831;-75
2021/03/25 12:20:51;;;;;;;27.07;24.50;;;17.30;99.90;;;;;;5105599;28;21079;-73
2021/03/25 12:23:19;;;;;;;27.57;24.83;;;16.90;99.90;;;;;;5109033;28;20596;-74
2021/03/25 12:25:49;;;;;;;29.47;23.87;;;16.70;99.90;;;;;;5111736;28;20466;-72
2021/03/25 12:28:16;;;;;;;27.73;25.30;;;16.60;99.90;;;;;;5116210;28;20484;-74
2021/03/25 12:30:44;;;;;;;28.77;25.67;;;16.90;99.90;;;;;;5108931;28;21028;-72
2021/03/25 12:33:18;;;;;;;27.83;25.47;;;17.50;99.90;;;;;;5109120;27;20876;-71
2021/03/25 12:35:45;;;;;;;30.17;26.97;;;18.30;99.90;;;;;;5108825;27;20830;-71
2021/03/25 12:38:12;;;;;;;28.33;25.70;;;17.80;99.90;;;;;;5112287;27;20457;-71
2021/03/25 12:40:39;;;;;;;28.00;25.50;;;18.20;99.90;;;;;;5115925;27;20591;-73
2021/03/25 12:43:07;;;;;;;29.73;26.90;;;18.10;99.90;;;;;;5114457;27;20461;-72
2021/03/25 12:45:37;;;;;;;28.93;26.37;;;18.30;99.90;;;;;;5110956;27;20463;-71
2021/03/25 12:48:04;;;;;;;30.30;27.27;;;19.10;99.90;;;;;;5115029;27;20483;-72
2021/03/25 12:50:31;;;;;;;28.57;26.37;;;19.20;99.90;;;;;;5113956;27;20461;-72
2021/03/25 12:52:59;;;;;;;29.00;26.33;;;19.60;99.90;;;;;;5113184;27;20969;-71
2021/03/25 12:55:27;;;;;;;30.20;27.67;;;19.10;99.90;;;;;;5115976;27;20453;-72
2021/03/25 12:57:55;;;;;;;29.13;26.43;;;18.50;99.90;;;;;;5110816;27;20464;-73
2021/03/25 13:00:32;;;;;;;32.10;29.53;;;18.00;99.90;;;;;;5110655;27;20480;-73
2021/03/25 13:02:59;;;;;;;38.13;34.57;;;17.70;99.90;;;;;;5110919;27;20468;-71